createdAt,value
2022-07-27T00:01:08.220Z,14.80
2022-07-27T00:03:36.468Z,14.70
2022-07-27T00:06:04.746Z,14.60
2022-07-27T00:08:32.714Z,14.60
2022-07-27T00:11:01.201Z,14.50
2022-07-27T00:13:29.176Z,14.50
2022-07-27T00:15:57.436Z,14.50
2022-07-27T00:18:27.204Z,14.50
2022-07-27T00:20:55.262Z,14.40
2022-07-27T00:23:23.385Z,14.40
2022-07-27T00:25:51.721Z,14.30
2022-07-27T00:28:19.815Z,14.20
2022-07-27T00:30:47.830Z,14.20
2022-07-27T00:33:17.179Z,14.10
2022-07-27T00:35:46.880Z,14.10
2022-07-27T00:38:14.801Z,14.00
2022-07-27T00:40:43.196Z,13.90
2022-07-27T00:43:11.238Z,13.60
2022-07-27T00:45:39.301Z,13.60
2022-07-27T00:48:07.535Z,13.40
2022-07-27T00:50:36.177Z,13.30
2022-07-27T00:53:06.102Z,13.20
2022-07-27T00:55:35.292Z,12.90
2022-07-27T00:58:05.957Z,12.90
2022-07-27T01:00:34.010Z,12.80
2022-07-27T01:03:02.642Z,12.70
2022-07-27T01:05:42.539Z,12.60
2022-07-27T01:08:14.679Z,12.50
2022-07-27T01:10:44.180Z,12.30
2022-07-27T01:13:13.533Z,12.20
2022-07-27T01:15:43.117Z,12.10
2022-07-27T01:18:15.103Z,12.00
2022-07-27T01:20:44.124Z,12.00
2022-07-27T01:23:13.607Z,11.80
2022-07-27T01:25:44.605Z,11.80
2022-07-27T01:28:12.723Z,11.70
2022-07-27T01:30:40.898Z,11.70
2022-07-27T01:33:10.568Z,11.60
2022-07-27T01:35:40.496Z,11.50
2022-07-27T01:38:10.316Z,11.50
2022-07-27T01:40:40.511Z,11.40
2022-07-27T01:43:08.519Z,11.40
2022-07-27T01:45:36.442Z,11.30
2022-07-27T01:48:04.742Z,11.30
2022-07-27T01:50:33.020Z,11.20
2022-07-27T01:53:01.167Z,11.20
2022-07-27T01:55:35.733Z,11.20
2022-07-27T01:58:08.666Z,11.20
2022-07-27T02:00:37.236Z,11.10
2022-07-27T02:03:07.126Z,11.10
2022-07-27T02:05:35.634Z,11.10
2022-07-27T02:08:04.360Z,11.00
2022-07-27T02:10:32.820Z,11.00
2022-07-27T02:12:59.865Z,10.90
2022-07-27T02:15:42.283Z,10.90
2022-07-27T02:18:26.677Z,10.80
2022-07-27T02:21:00.639Z,10.80
2022-07-27T02:23:29.022Z,10.70
2022-07-27T02:25:57.257Z,10.70
2022-07-27T02:28:25.242Z,10.70
2022-07-27T02:30:54.875Z,10.60
2022-07-27T02:33:23.108Z,10.60
2022-07-27T02:35:52.067Z,10.60
2022-07-27T02:38:20.289Z,10.50
2022-07-27T02:40:48.345Z,10.50
2022-07-27T02:43:16.437Z,10.40
2022-07-27T02:45:44.415Z,10.40
2022-07-27T02:48:16.378Z,10.30
2022-07-27T02:50:44.458Z,10.30
2022-07-27T02:53:12.452Z,10.30
2022-07-27T02:55:40.454Z,10.30
2022-07-27T02:58:08.655Z,10.20
2022-07-27T03:00:36.668Z,10.20
2022-07-27T03:03:04.972Z,10.20
2022-07-27T03:05:34.526Z,10.20
2022-07-27T03:08:03.982Z,10.20
2022-07-27T03:10:32.071Z,10.20
2022-07-27T03:13:00.130Z,10.20
2022-07-27T03:15:29.692Z,10.30
2022-07-27T03:17:58.030Z,10.20
2022-07-27T03:20:25.960Z,10.30
2022-07-27T03:22:55.411Z,10.30
2022-07-27T03:25:23.753Z,10.30
2022-07-27T03:27:51.819Z,10.30
2022-07-27T03:30:19.945Z,10.30
2022-07-27T03:32:48.899Z,10.30
2022-07-27T03:35:16.978Z,10.40
2022-07-27T03:37:47.783Z,10.40
2022-07-27T03:40:17.311Z,10.40
2022-07-27T03:42:45.694Z,10.40
2022-07-27T03:45:13.754Z,10.40
2022-07-27T03:47:41.876Z,10.40
2022-07-27T03:50:10.460Z,10.40
2022-07-27T03:52:38.300Z,10.40
2022-07-27T03:55:07.433Z,10.50
2022-07-27T03:57:36.782Z,10.50
2022-07-27T04:00:06.967Z,10.50
2022-07-27T04:02:35.130Z,10.50
2022-07-27T04:05:03.165Z,10.50
2022-07-27T04:07:31.150Z,10.50
2022-07-27T04:09:59.528Z,10.50
2022-07-27T04:12:27.919Z,10.50
2022-07-27T04:14:58.132Z,10.50
2022-07-27T04:17:55.467Z,10.50
2022-07-27T04:20:14.836Z,10.60
2022-07-27T04:22:42.854Z,10.60
2022-07-27T04:25:11.802Z,10.70
2022-07-27T04:27:39.811Z,10.80
2022-07-27T04:30:10.528Z,10.90
2022-07-27T04:32:38.995Z,11.00
2022-07-27T04:35:08.349Z,11.00
2022-07-27T04:37:36.736Z,11.20
2022-07-27T04:40:05.669Z,11.30
2022-07-27T04:42:33.711Z,11.50
2022-07-27T04:45:01.736Z,11.70
2022-07-27T04:47:31.232Z,11.90
2022-07-27T04:49:59.287Z,11.90
2022-07-27T04:52:27.349Z,12.10
2022-07-27T04:54:56.913Z,12.30
2022-07-27T04:57:25.088Z,12.30
2022-07-27T04:59:53.025Z,12.40
2022-07-27T05:02:20.937Z,12.50
2022-07-27T05:04:50.368Z,12.60
2022-07-27T05:07:18.341Z,12.70
2022-07-27T05:09:46.706Z,12.70
2022-07-27T05:12:14.669Z,12.80
2022-07-27T05:14:42.770Z,12.80
2022-07-27T05:17:10.848Z,12.80
2022-07-27T05:19:40.719Z,12.80
2022-07-27T05:22:10.774Z,12.80
2022-07-27T05:24:38.784Z,12.80
2022-07-27T05:27:07.118Z,12.80
2022-07-27T05:29:35.181Z,12.80
2022-07-27T05:32:03.141Z,12.80
2022-07-27T05:34:31.155Z,12.90
2022-07-27T05:36:59.149Z,12.90
2022-07-27T05:39:28.504Z,13.10
2022-07-27T05:41:56.532Z,13.30
2022-07-27T05:44:25.278Z,13.50
2022-07-27T05:46:53.214Z,13.60
2022-07-27T05:49:21.610Z,14.20
2022-07-27T05:51:50.647Z,14.60
2022-07-27T05:54:19.346Z,15.00
2022-07-27T05:56:48.853Z,15.20
2022-07-27T05:59:16.996Z,15.00
2022-07-27T06:01:45.023Z,14.90
2022-07-27T06:04:14.500Z,14.80
2022-07-27T06:07:00.523Z,14.60
2022-07-27T06:09:28.600Z,14.50
2022-07-27T06:11:58.040Z,14.40
2022-07-27T06:14:26.051Z,14.40
2022-07-27T06:16:54.730Z,14.50
2022-07-27T06:19:23.013Z,14.50
2022-07-27T06:21:53.848Z,14.60
2022-07-27T06:24:22.012Z,14.70
2022-07-27T06:26:50.268Z,14.80
2022-07-27T06:29:19.635Z,15.00
2022-07-27T06:31:47.689Z,15.20
2022-07-27T06:34:15.896Z,15.40
2022-07-27T06:36:45.358Z,15.50
2022-07-27T06:39:13.879Z,15.60
2022-07-27T06:41:42.100Z,15.80
2022-07-27T06:44:10.150Z,15.90
2022-07-27T06:46:39.686Z,16.10
2022-07-27T06:49:08.076Z,16.10
2022-07-27T06:51:36.037Z,16.10
2022-07-27T06:54:05.564Z,15.90
2022-07-27T06:56:34.083Z,16.00
2022-07-27T06:59:02.182Z,16.20
2022-07-27T07:01:30.293Z,16.40
2022-07-27T07:04:00.231Z,16.50
2022-07-27T07:06:28.481Z,16.60
2022-07-27T07:08:56.488Z,16.80
2022-07-27T07:11:24.513Z,16.80
2022-07-27T07:13:52.433Z,16.80
2022-07-27T07:16:20.532Z,16.80
2022-07-27T07:18:52.318Z,16.90
2022-07-27T07:21:22.125Z,17.10
2022-07-27T07:23:50.313Z,17.10
2022-07-27T07:26:18.438Z,16.90
2022-07-27T07:28:46.705Z,17.10
2022-07-27T07:31:14.806Z,17.30
2022-07-27T07:33:43.237Z,17.50
2022-07-27T07:36:13.664Z,17.60
2022-07-27T07:38:44.147Z,17.50
2022-07-27T07:41:12.172Z,17.50
2022-07-27T07:43:42.229Z,17.70
2022-07-27T07:46:10.472Z,17.70
2022-07-27T07:48:39.754Z,17.70
2022-07-27T07:51:07.923Z,17.70
2022-07-27T07:53:41.135Z,17.90
2022-07-27T07:56:11.158Z,18.00
2022-07-27T07:58:39.159Z,18.10
2022-07-27T08:01:07.284Z,18.00
2022-07-27T08:03:35.831Z,17.90
2022-07-27T08:06:03.825Z,18.10
2022-07-27T08:08:31.830Z,18.20
2022-07-27T08:10:59.834Z,18.30
2022-07-27T08:13:29.027Z,18.40
2022-07-27T08:15:57.248Z,18.20
2022-07-27T08:18:25.485Z,18.10
2022-07-27T08:20:53.741Z,18.10
2022-07-27T08:23:21.904Z,17.90
2022-07-27T08:25:50.089Z,17.60
2022-07-27T08:28:18.419Z,17.60
2022-07-27T08:30:49.450Z,17.70
2022-07-27T08:33:26.824Z,17.80
2022-07-27T08:35:54.794Z,17.80
2022-07-27T08:38:28.113Z,18.20
2022-07-27T08:40:56.809Z,18.40
2022-07-27T08:43:25.771Z,18.40
2022-07-27T08:45:57.279Z,18.20
2022-07-27T08:48:26.668Z,18.10
2022-07-27T08:50:55.092Z,18.00
2022-07-27T08:53:24.255Z,18.00
2022-07-27T08:55:52.268Z,18.10
2022-07-27T08:58:20.379Z,18.30
2022-07-27T09:00:51.035Z,18.70
2022-07-27T09:03:23.568Z,18.60
2022-07-27T09:05:53.406Z,18.80
2022-07-27T09:08:24.774Z,18.80
2022-07-27T09:10:55.256Z,18.50
2022-07-27T09:13:25.865Z,18.40
2022-07-27T09:18:45.529Z,18.80
2022-07-27T09:21:16.040Z,19.00
2022-07-27T09:23:49.966Z,18.90
2022-07-27T09:26:36.080Z,19.00
2022-07-27T09:29:07.197Z,19.50
2022-07-27T09:31:43.054Z,20.00
2022-07-27T09:34:13.859Z,20.30
2022-07-27T09:37:00.326Z,20.30
2022-07-27T09:39:29.849Z,20.20
2022-07-27T09:42:01.321Z,20.00
2022-07-27T09:44:42.667Z,19.80
2022-07-27T09:47:23.038Z,19.90
2022-07-27T09:49:52.514Z,20.00
2022-07-27T09:52:25.543Z,20.20
2022-07-27T09:54:57.643Z,20.40
2022-07-27T09:57:26.219Z,20.70
2022-07-27T10:00:16.475Z,20.90
2022-07-27T10:02:45.245Z,20.90
2022-07-27T10:05:18.235Z,20.90
2022-07-27T10:07:46.612Z,21.20
2022-07-27T10:10:15.415Z,21.20
2022-07-27T10:12:46.840Z,21.00
2022-07-27T10:15:17.503Z,20.70
2022-07-27T10:17:46.299Z,20.40
2022-07-27T10:20:20.208Z,20.00
2022-07-27T10:22:53.315Z,19.70
2022-07-27T10:25:22.315Z,19.50
2022-07-27T10:28:08.219Z,19.30
2022-07-27T10:30:36.257Z,19.30
2022-07-27T10:33:13.981Z,19.60
2022-07-27T10:35:44.125Z,19.80
2022-07-27T10:38:15.434Z,19.80
2022-07-27T10:40:44.278Z,19.70
2022-07-27T10:43:19.945Z,20.00
2022-07-27T10:46:01.375Z,20.00
2022-07-27T10:48:40.545Z,20.10
2022-07-27T10:51:16.100Z,20.20
2022-07-27T10:56:46.891Z,20.40
2022-07-27T10:59:15.407Z,20.50
2022-07-27T11:01:58.073Z,20.20
2022-07-27T11:04:27.308Z,20.30
2022-07-27T11:10:05.863Z,20.40
2022-07-27T11:12:34.440Z,20.10
2022-07-27T11:15:03.038Z,20.20
2022-07-27T11:17:58.172Z,20.20
2022-07-27T11:20:25.906Z,20.50
2022-07-27T11:23:51.050Z,20.70
2022-07-27T11:25:58.709Z,20.80
2022-07-27T11:28:31.077Z,21.00
2022-07-27T11:30:59.167Z,21.20
2022-07-27T11:33:27.490Z,21.20
2022-07-27T11:35:57.847Z,20.90
2022-07-27T11:38:27.704Z,20.80
2022-07-27T11:41:08.053Z,20.80
2022-07-27T11:43:45.401Z,20.60
2022-07-27T11:46:16.202Z,20.60
2022-07-27T11:49:17.983Z,20.90
2022-07-27T11:51:43.818Z,21.20
2022-07-27T11:54:14.710Z,21.10
2022-07-27T11:56:46.020Z,20.70
2022-07-27T11:59:16.819Z,20.70
2022-07-27T12:01:52.300Z,20.80
2022-07-27T12:04:26.382Z,20.80
2022-07-27T12:07:03.237Z,20.70
2022-07-27T12:09:38.288Z,20.70
2022-07-27T12:12:14.236Z,20.80
2022-07-27T12:14:46.907Z,20.60
2022-07-27T12:17:19.167Z,20.40
2022-07-27T12:19:56.118Z,20.40
2022-07-27T12:22:27.630Z,20.40
2022-07-27T12:25:02.081Z,20.30
2022-07-27T12:27:30.664Z,20.30
2022-07-27T12:30:05.770Z,20.50
2022-07-27T12:32:37.479Z,20.80
2022-07-27T12:35:23.951Z,21.00
2022-07-27T12:38:00.041Z,21.40
2022-07-27T12:40:31.138Z,21.90
2022-07-27T12:43:01.119Z,22.20
2022-07-27T12:45:34.505Z,22.30
2022-07-27T12:48:10.221Z,22.10
2022-07-27T12:50:39.108Z,21.60
2022-07-27T12:53:07.509Z,21.50
2022-07-27T12:55:38.106Z,21.20
2022-07-27T12:58:06.140Z,21.10
2022-07-27T13:00:34.490Z,20.40
2022-07-27T13:03:03.989Z,20.30
2022-07-27T13:05:32.722Z,20.40
2022-07-27T13:08:01.257Z,20.50
2022-07-27T13:10:29.381Z,20.80
2022-07-27T13:12:59.187Z,21.00
2022-07-27T13:15:28.499Z,21.40
2022-07-27T13:18:00.150Z,21.50
2022-07-27T13:20:28.525Z,21.40
2022-07-27T13:22:56.675Z,21.10
2022-07-27T13:25:25.238Z,21.10
2022-07-27T13:27:53.302Z,21.50
2022-07-27T13:30:23.097Z,21.90
2022-07-27T13:32:51.044Z,22.00
2022-07-27T13:35:19.044Z,21.80
2022-07-27T13:37:46.994Z,21.50
2022-07-27T13:40:15.955Z,21.60
2022-07-27T13:42:44.286Z,22.10
2022-07-27T13:45:12.880Z,22.30
2022-07-27T13:47:42.746Z,22.50
2022-07-27T13:50:18.332Z,22.50
2022-07-27T13:52:47.586Z,22.20
2022-07-27T13:55:16.551Z,21.90
2022-07-27T13:57:45.500Z,22.00
2022-07-27T14:00:15.157Z,22.10
2022-07-27T14:02:46.172Z,22.00
2022-07-27T14:05:14.821Z,22.40
2022-07-27T14:07:45.109Z,22.60
2022-07-27T14:10:31.361Z,22.60
2022-07-27T14:13:08.158Z,22.50
2022-07-27T14:15:50.488Z,22.50
2022-07-27T14:18:27.474Z,22.60
2022-07-27T14:20:56.332Z,22.70
2022-07-27T14:23:25.132Z,22.60
2022-07-27T14:25:53.679Z,22.90
2022-07-27T14:28:21.800Z,23.10
2022-07-27T14:30:50.395Z,22.90
2022-07-27T14:33:18.859Z,23.00
2022-07-27T14:35:48.901Z,22.70
2022-07-27T14:38:27.968Z,22.20
2022-07-27T14:41:01.059Z,21.80
2022-07-27T14:43:29.780Z,21.80
2022-07-27T14:45:58.154Z,21.90
2022-07-27T14:48:48.551Z,22.00
2022-07-27T14:51:15.730Z,22.00
2022-07-27T14:53:43.635Z,21.70
2022-07-27T14:56:11.579Z,21.60
2022-07-27T14:58:39.707Z,21.40
2022-07-27T15:01:08.011Z,21.40
2022-07-27T15:03:36.226Z,21.30
2022-07-27T15:06:04.404Z,20.90
2022-07-27T15:08:33.837Z,20.70
2022-07-27T15:11:01.768Z,20.70
2022-07-27T15:13:29.753Z,20.70
2022-07-27T15:15:58.198Z,20.80
2022-07-27T15:18:26.424Z,21.00
2022-07-27T15:20:54.473Z,21.20
2022-07-27T15:23:22.342Z,21.00
2022-07-27T15:25:51.762Z,20.90
2022-07-27T15:28:19.915Z,20.90
2022-07-27T15:30:48.754Z,20.90
2022-07-27T15:33:16.712Z,20.90
2022-07-27T15:35:44.656Z,20.90
2022-07-27T15:38:12.656Z,20.80
2022-07-27T15:40:42.327Z,20.80
2022-07-27T15:43:13.755Z,20.80
2022-07-27T15:45:43.279Z,20.70
2022-07-27T15:48:12.689Z,20.60
2022-07-27T15:50:42.807Z,20.70
2022-07-27T15:53:12.125Z,20.60
2022-07-27T15:55:40.261Z,20.70
2022-07-27T15:58:09.132Z,20.80
2022-07-27T16:00:41.191Z,20.80
2022-07-27T16:03:10.587Z,20.80
2022-07-27T16:05:39.070Z,20.80
2022-07-27T16:08:09.642Z,20.80
2022-07-27T16:10:38.177Z,20.90
2022-07-27T16:13:06.610Z,20.90
2022-07-27T16:15:52.578Z,21.00
2022-07-27T16:18:22.529Z,21.00
2022-07-27T16:20:50.515Z,21.10
2022-07-27T16:23:21.637Z,20.90
2022-07-27T16:26:08.297Z,20.80
2022-07-27T16:28:39.462Z,20.80
2022-07-27T16:31:10.458Z,20.80
2022-07-27T16:33:40.124Z,20.90
2022-07-27T16:36:09.170Z,21.00
2022-07-27T16:38:37.189Z,21.00
2022-07-27T16:41:07.437Z,21.00
2022-07-27T16:43:37.986Z,20.90
2022-07-27T16:46:07.719Z,20.90
2022-07-27T16:48:42.271Z,21.00
2022-07-27T16:51:13.497Z,21.00
2022-07-27T16:53:43.549Z,21.00
2022-07-27T16:56:12.096Z,20.90
2022-07-27T16:58:40.446Z,21.00
2022-07-27T17:01:09.479Z,20.90
2022-07-27T17:03:37.831Z,20.90
2022-07-27T17:06:07.189Z,20.80
2022-07-27T17:08:37.273Z,20.60
2022-07-27T17:11:06.702Z,20.50
2022-07-27T17:13:35.229Z,20.50
2022-07-27T17:16:03.897Z,20.30
2022-07-27T17:18:38.954Z,20.20
2022-07-27T17:21:09.361Z,20.10
2022-07-27T17:23:39.895Z,20.00
2022-07-27T17:26:08.833Z,19.90
2022-07-27T17:28:39.298Z,19.80
2022-07-27T17:31:08.814Z,19.70
2022-07-27T17:33:37.077Z,19.60
2022-07-27T17:36:08.399Z,19.50
2022-07-27T17:38:41.594Z,19.40
2022-07-27T17:41:09.499Z,19.30
2022-07-27T17:43:38.781Z,19.20
2022-07-27T17:46:07.550Z,19.20
2022-07-27T17:48:35.867Z,19.20
2022-07-27T17:51:03.939Z,19.10
2022-07-27T17:53:31.860Z,19.10
2022-07-27T17:56:02.726Z,19.20
2022-07-27T17:58:30.843Z,19.10
2022-07-27T18:00:58.942Z,19.10
2022-07-27T18:03:26.973Z,19.10
2022-07-27T18:05:55.183Z,19.00
2022-07-27T18:08:23.154Z,19.00
2022-07-27T18:10:52.254Z,18.90
2022-07-27T18:13:21.649Z,18.80
2022-07-27T18:15:50.720Z,18.70
2022-07-27T18:18:22.010Z,18.60
2022-07-27T18:20:52.315Z,18.50
2022-07-27T18:23:20.815Z,18.50
2022-07-27T18:25:49.244Z,18.30
2022-07-27T18:28:18.939Z,18.20
2022-07-27T18:30:51.125Z,18.10
2022-07-27T18:33:19.737Z,18.00
2022-07-27T18:35:48.306Z,17.80
2022-07-27T18:38:16.796Z,17.60
2022-07-27T18:40:48.937Z,17.50
2022-07-27T18:43:17.523Z,17.20
2022-07-27T18:45:45.713Z,17.10
2022-07-27T18:48:15.753Z,16.90
2022-07-27T18:50:43.697Z,16.80
2022-07-27T18:53:11.688Z,16.50
2022-07-27T18:55:40.808Z,16.40
2022-07-27T18:58:08.811Z,16.20
2022-07-27T19:00:36.742Z,16.10
2022-07-27T19:03:04.969Z,15.90
2022-07-27T19:05:41.678Z,15.80
2022-07-27T19:08:13.116Z,15.60
2022-07-27T19:10:41.922Z,15.50
2022-07-27T19:13:10.573Z,15.40
2022-07-27T19:15:39.889Z,15.20
2022-07-27T19:18:08.409Z,15.10
2022-07-27T19:20:37.875Z,15.00
2022-07-27T19:23:06.327Z,14.80
2022-07-27T19:25:34.767Z,14.70
2022-07-27T19:28:03.280Z,14.60
2022-07-27T19:30:31.340Z,14.50
2022-07-27T19:32:59.316Z,14.30
2022-07-27T19:35:27.553Z,14.20
2022-07-27T19:37:57.050Z,14.10
2022-07-27T19:40:44.945Z,14.10
2022-07-27T19:43:14.134Z,13.90
2022-07-27T19:45:42.724Z,13.90
2022-07-27T19:48:10.946Z,13.80
2022-07-27T19:50:40.020Z,13.80
2022-07-27T19:53:10.060Z,13.60
2022-07-27T19:55:38.133Z,13.50
2022-07-27T19:58:06.026Z,13.40
2022-07-27T20:00:33.906Z,13.40
2022-07-27T20:03:02.086Z,13.30
2022-07-27T20:05:30.278Z,13.20
2022-07-27T20:07:58.181Z,13.10
2022-07-27T20:10:27.570Z,13.10
2022-07-27T20:12:55.831Z,13.00
2022-07-27T20:15:23.902Z,13.00
2022-07-27T20:17:52.114Z,12.90
2022-07-27T20:20:20.705Z,12.90
2022-07-27T20:22:49.045Z,12.90
2022-07-27T20:25:18.621Z,12.80
2022-07-27T20:27:48.637Z,12.70
2022-07-27T20:30:18.094Z,12.60
2022-07-27T20:32:46.513Z,12.60
2022-07-27T20:35:14.868Z,12.70
2022-07-27T20:37:42.991Z,12.60
2022-07-27T20:40:12.570Z,12.60
2022-07-27T20:42:41.330Z,12.50
2022-07-27T20:45:14.518Z,12.50
2022-07-27T20:47:43.199Z,12.50
2022-07-27T20:50:13.039Z,12.50
2022-07-27T20:52:41.982Z,12.50
2022-07-27T20:55:11.097Z,12.40
2022-07-27T20:57:39.450Z,12.40
2022-07-27T21:00:10.602Z,12.40
2022-07-27T21:02:38.831Z,12.30
2022-07-27T21:05:08.597Z,12.30
2022-07-27T21:07:36.451Z,12.20
2022-07-27T21:10:05.118Z,12.20
2022-07-27T21:12:33.205Z,12.20
2022-07-27T21:15:01.471Z,12.20
2022-07-27T21:17:31.318Z,12.10
2022-07-27T21:19:59.103Z,12.10
2022-07-27T21:22:27.145Z,12.10
2022-07-27T21:24:55.212Z,12.10
2022-07-27T21:27:23.719Z,12.20
2022-07-27T21:29:52.723Z,12.00
2022-07-27T21:32:20.824Z,11.90
2022-07-27T21:34:50.425Z,11.90
2022-07-27T21:37:18.559Z,11.90
2022-07-27T21:39:46.670Z,11.80
2022-07-27T21:42:14.650Z,11.70
2022-07-27T21:44:42.610Z,11.70
2022-07-27T21:47:14.098Z,11.60
2022-07-27T21:49:42.641Z,11.60
2022-07-27T21:52:12.338Z,11.50
2022-07-27T21:54:40.515Z,11.50
2022-07-27T21:57:08.481Z,11.50
2022-07-27T21:59:36.555Z,11.40
2022-07-27T22:02:04.648Z,11.30
2022-07-27T22:04:32.510Z,11.30
2022-07-27T22:07:00.584Z,11.20
2022-07-27T22:09:30.344Z,11.20
2022-07-27T22:11:58.414Z,11.10
2022-07-27T22:14:26.361Z,11.10
2022-07-27T22:16:54.357Z,11.00
2022-07-27T22:19:22.521Z,11.00
2022-07-27T22:21:50.496Z,11.00
2022-07-27T22:24:18.483Z,11.00
2022-07-27T22:26:49.166Z,10.90
2022-07-27T22:29:17.275Z,10.80
2022-07-27T22:31:45.126Z,10.70
2022-07-27T22:34:13.270Z,10.70
2022-07-27T22:36:41.471Z,10.70
2022-07-27T22:39:09.429Z,10.50
2022-07-27T22:41:37.492Z,10.50
2022-07-27T22:44:06.910Z,10.40
2022-07-27T22:46:34.935Z,10.40
2022-07-27T22:49:03.078Z,10.40
2022-07-27T22:51:49.868Z,10.30
2022-07-27T22:54:18.960Z,10.20
2022-07-27T22:56:47.179Z,10.20
2022-07-27T22:59:16.437Z,10.10
2022-07-27T23:01:47.317Z,10.10
2022-07-27T23:04:17.438Z,10.10
2022-07-27T23:06:45.614Z,10.00
2022-07-27T23:09:13.797Z,10.00
2022-07-27T23:11:42.296Z,9.90
2022-07-27T23:14:10.570Z,9.90
2022-07-27T23:16:40.835Z,9.80
2022-07-27T23:19:09.635Z,9.90
2022-07-27T23:21:38.214Z,9.70
2022-07-27T23:24:07.070Z,9.70
2022-07-27T23:26:36.054Z,9.70
2022-07-27T23:29:04.221Z,9.60
2022-07-27T23:31:32.235Z,9.60
2022-07-27T23:34:01.621Z,9.60
2022-07-27T23:36:29.625Z,9.60
2022-07-27T23:38:57.610Z,9.60
2022-07-27T23:41:32.603Z,9.40
2022-07-27T23:44:00.576Z,9.50
2022-07-27T23:46:28.737Z,9.50
2022-07-27T23:48:56.790Z,9.50
2022-07-27T23:51:26.455Z,9.50
2022-07-27T23:53:54.501Z,9.40
2022-07-27T23:56:22.431Z,9.40
2022-07-27T23:58:50.561Z,9.30
